sensor_id;sensor_type;location;lat;lon;timestamp;P1;durP1;ratioP1;P2;durP2;ratioP2
78224;SDS011;67498;53.650;10.090;2023-07-29T00:01:22;5.83;;;1.40;;
78224;SDS011;67498;53.650;10.090;2023-07-29T00:03:48;4.20;;;1.20;;
78224;SDS011;67498;53.650;10.090;2023-07-29T00:06:13;7.40;;;1.63;;
78224;SDS011;67498;53.650;10.090;2023-07-29T00:08:38;5.20;;;1.47;;
78224;SDS011;67498;53.650;10.090;2023-07-29T00:11:03;3.60;;;0.90;;
78224;SDS011;67498;53.650;10.090;2023-07-29T00:13:29;4.53;;;1.33;;
78224;SDS011;67498;53.650;10.090;2023-07-29T00:15:54;5.10;;;1.47;;
78224;SDS011;67498;53.650;10.090;2023-07-29T00:18:20;3.83;;;1.25;;
78224;SDS011;67498;53.650;10.090;2023-07-29T00:20:46;4.17;;;1.30;;
78224;SDS011;67498;53.650;10.090;2023-07-29T00:23:11;4.87;;;1.47;;
78224;SDS011;67498;53.650;10.090;2023-07-29T00:25:36;3.40;;;1.10;;
78224;SDS011;67498;53.650;10.090;2023-07-29T00:28:01;4.87;;;1.87;;
78224;SDS011;67498;53.650;10.090;2023-07-29T00:30:26;5.37;;;1.83;;
78224;SDS011;67498;53.650;10.090;2023-07-29T00:32:52;5.60;;;1.80;;
78224;SDS011;67498;53.650;10.090;2023-07-29T00:35:17;4.93;;;1.73;;
78224;SDS011;67498;53.650;10.090;2023-07-29T00:37:43;4.63;;;1.57;;
78224;SDS011;67498;53.650;10.090;2023-07-29T00:40:09;4.63;;;1.50;;
78224;SDS011;67498;53.650;10.090;2023-07-29T00:42:40;6.60;;;1.60;;
78224;SDS011;67498;53.650;10.090;2023-07-29T00:45:07;8.47;;;1.83;;
78224;SDS011;67498;53.650;10.090;2023-07-29T00:47:33;5.63;;;2.00;;
78224;SDS011;67498;53.650;10.090;2023-07-29T00:49:58;5.47;;;1.97;;
78224;SDS011;67498;53.650;10.090;2023-07-29T00:52:24;6.17;;;2.37;;
78224;SDS011;67498;53.650;10.090;2023-07-29T00:54:49;5.65;;;2.00;;
78224;SDS011;67498;53.650;10.090;2023-07-29T00:57:14;9.23;;;1.77;;
78224;SDS011;67498;53.650;10.090;2023-07-29T00:59:41;5.07;;;2.13;;
78224;SDS011;67498;53.650;10.090;2023-07-29T01:02:07;6.63;;;2.20;;
78224;SDS011;67498;53.650;10.090;2023-07-29T01:04:33;6.88;;;2.53;;
78224;SDS011;67498;53.650;10.090;2023-07-29T01:07:01;5.83;;;1.83;;
78224;SDS011;67498;53.650;10.090;2023-07-29T01:12:31;7.55;;;2.35;;
78224;SDS011;67498;53.650;10.090;2023-07-29T01:15:09;8.30;;;2.72;;
78224;SDS011;67498;53.650;10.090;2023-07-29T01:17:40;6.45;;;2.15;;
78224;SDS011;67498;53.650;10.090;2023-07-29T01:20:09;6.35;;;2.20;;
78224;SDS011;67498;53.650;10.090;2023-07-29T01:22:38;7.77;;;2.40;;
78224;SDS011;67498;53.650;10.090;2023-07-29T01:25:05;7.32;;;2.90;;
78224;SDS011;67498;53.650;10.090;2023-07-29T01:27:30;6.50;;;2.40;;
78224;SDS011;67498;53.650;10.090;2023-07-29T01:29:56;7.63;;;2.80;;
78224;SDS011;67498;53.650;10.090;2023-07-29T01:32:28;7.45;;;2.30;;
78224;SDS011;67498;53.650;10.090;2023-07-29T01:35:14;6.27;;;2.17;;
78224;SDS011;67498;53.650;10.090;2023-07-29T01:37:43;7.28;;;2.50;;
78224;SDS011;67498;53.650;10.090;2023-07-29T01:40:12;7.38;;;2.40;;
78224;SDS011;67498;53.650;10.090;2023-07-29T01:42:38;8.02;;;2.88;;
78224;SDS011;67498;53.650;10.090;2023-07-29T01:45:04;6.20;;;1.77;;
78224;SDS011;67498;53.650;10.090;2023-07-29T01:47:30;7.45;;;2.65;;
78224;SDS011;67498;53.650;10.090;2023-07-29T01:49:55;6.20;;;2.30;;
78224;SDS011;67498;53.650;10.090;2023-07-29T01:52:20;7.63;;;2.30;;
78224;SDS011;67498;53.650;10.090;2023-07-29T01:54:46;6.13;;;2.47;;
78224;SDS011;67498;53.650;10.090;2023-07-29T01:57:11;7.20;;;2.30;;
78224;SDS011;67498;53.650;10.090;2023-07-29T01:59:36;9.27;;;3.17;;
78224;SDS011;67498;53.650;10.090;2023-07-29T02:02:02;5.75;;;2.15;;
78224;SDS011;67498;53.650;10.090;2023-07-29T02:04:27;6.40;;;2.30;;
78224;SDS011;67498;53.650;10.090;2023-07-29T02:06:53;7.60;;;2.47;;
78224;SDS011;67498;53.650;10.090;2023-07-29T02:09:18;5.33;;;2.03;;
78224;SDS011;67498;53.650;10.090;2023-07-29T02:11:44;11.45;;;2.70;;
78224;SDS011;67498;53.650;10.090;2023-07-29T02:14:09;7.83;;;2.30;;
78224;SDS011;67498;53.650;10.090;2023-07-29T02:16:34;7.33;;;2.60;;
78224;SDS011;67498;53.650;10.090;2023-07-29T02:19:00;9.37;;;2.83;;
78224;SDS011;67498;53.650;10.090;2023-07-29T02:21:25;6.80;;;2.90;;
78224;SDS011;67498;53.650;10.090;2023-07-29T02:23:50;8.43;;;3.37;;
78224;SDS011;67498;53.650;10.090;2023-07-29T02:26:16;9.03;;;3.70;;
78224;SDS011;67498;53.650;10.090;2023-07-29T02:28:42;7.37;;;2.90;;
78224;SDS011;67498;53.650;10.090;2023-07-29T02:31:17;6.53;;;2.80;;
78224;SDS011;67498;53.650;10.090;2023-07-29T02:33:45;6.65;;;2.90;;
78224;SDS011;67498;53.650;10.090;2023-07-29T02:36:11;7.03;;;2.97;;
78224;SDS011;67498;53.650;10.090;2023-07-29T02:38:37;6.85;;;2.75;;
78224;SDS011;67498;53.650;10.090;2023-07-29T02:41:03;8.60;;;2.88;;
78224;SDS011;67498;53.650;10.090;2023-07-29T02:43:28;6.37;;;2.83;;
78224;SDS011;67498;53.650;10.090;2023-07-29T02:45:53;9.10;;;3.13;;
78224;SDS011;67498;53.650;10.090;2023-07-29T02:48:19;7.20;;;3.07;;
78224;SDS011;67498;53.650;10.090;2023-07-29T02:50:44;8.30;;;3.00;;
78224;SDS011;67498;53.650;10.090;2023-07-29T02:53:09;7.50;;;3.20;;
78224;SDS011;67498;53.650;10.090;2023-07-29T02:55:34;7.00;;;3.03;;
78224;SDS011;67498;53.650;10.090;2023-07-29T02:58:00;8.63;;;2.50;;
78224;SDS011;67498;53.650;10.090;2023-07-29T03:00:25;7.13;;;3.20;;
78224;SDS011;67498;53.650;10.090;2023-07-29T03:02:50;8.23;;;3.50;;
78224;SDS011;67498;53.650;10.090;2023-07-29T03:05:15;7.10;;;3.33;;
78224;SDS011;67498;53.650;10.090;2023-07-29T03:07:41;8.17;;;2.93;;
78224;SDS011;67498;53.650;10.090;2023-07-29T03:10:06;7.57;;;3.10;;
78224;SDS011;67498;53.650;10.090;2023-07-29T03:12:32;7.00;;;3.40;;
78224;SDS011;67498;53.650;10.090;2023-07-29T03:14:57;9.33;;;3.70;;
78224;SDS011;67498;53.650;10.090;2023-07-29T03:17:22;9.63;;;4.00;;
78224;SDS011;67498;53.650;10.090;2023-07-29T03:19:47;9.27;;;3.50;;
78224;SDS011;67498;53.650;10.090;2023-07-29T03:22:13;14.23;;;3.70;;
78224;SDS011;67498;53.650;10.090;2023-07-29T03:24:38;9.87;;;3.90;;
78224;SDS011;67498;53.650;10.090;2023-07-29T03:27:03;8.67;;;3.17;;
78224;SDS011;67498;53.650;10.090;2023-07-29T03:29:30;9.50;;;3.67;;
78224;SDS011;67498;53.650;10.090;2023-07-29T03:31:55;9.57;;;3.73;;
78224;SDS011;67498;53.650;10.090;2023-07-29T03:34:20;8.80;;;3.93;;
78224;SDS011;67498;53.650;10.090;2023-07-29T03:36:46;10.80;;;4.03;;
78224;SDS011;67498;53.650;10.090;2023-07-29T03:39:12;7.93;;;3.28;;
78224;SDS011;67498;53.650;10.090;2023-07-29T03:41:38;8.40;;;3.77;;
78224;SDS011;67498;53.650;10.090;2023-07-29T03:44:03;10.20;;;3.75;;
78224;SDS011;67498;53.650;10.090;2023-07-29T03:46:29;8.63;;;3.90;;
78224;SDS011;67498;53.650;10.090;2023-07-29T03:48:54;10.60;;;4.30;;
78224;SDS011;67498;53.650;10.090;2023-07-29T03:51:19;9.03;;;4.40;;
78224;SDS011;67498;53.650;10.090;2023-07-29T03:53:45;10.90;;;5.05;;
78224;SDS011;67498;53.650;10.090;2023-07-29T03:56:11;13.07;;;4.47;;
78224;SDS011;67498;53.650;10.090;2023-07-29T03:58:36;9.63;;;4.30;;
78224;SDS011;67498;53.650;10.090;2023-07-29T04:01:01;10.87;;;5.13;;
78224;SDS011;67498;53.650;10.090;2023-07-29T04:03:26;9.13;;;4.10;;
78224;SDS011;67498;53.650;10.090;2023-07-29T04:05:52;10.57;;;5.70;;
78224;SDS011;67498;53.650;10.090;2023-07-29T04:08:18;12.10;;;5.73;;
78224;SDS011;67498;53.650;10.090;2023-07-29T04:10:43;11.68;;;4.70;;
78224;SDS011;67498;53.650;10.090;2023-07-29T04:13:09;12.80;;;5.83;;
78224;SDS011;67498;53.650;10.090;2023-07-29T04:15:34;11.80;;;5.27;;
78224;SDS011;67498;53.650;10.090;2023-07-29T04:17:59;13.48;;;6.53;;
78224;SDS011;67498;53.650;10.090;2023-07-29T04:20:24;14.63;;;5.83;;
78224;SDS011;67498;53.650;10.090;2023-07-29T04:22:50;13.37;;;6.00;;
78224;SDS011;67498;53.650;10.090;2023-07-29T04:25:15;13.07;;;6.13;;
78224;SDS011;67498;53.650;10.090;2023-07-29T04:27:40;18.50;;;7.23;;
78224;SDS011;67498;53.650;10.090;2023-07-29T04:30:06;23.33;;;7.20;;
78224;SDS011;67498;53.650;10.090;2023-07-29T04:32:31;14.68;;;6.70;;
78224;SDS011;67498;53.650;10.090;2023-07-29T04:34:56;14.73;;;6.30;;
78224;SDS011;67498;53.650;10.090;2023-07-29T04:37:22;17.23;;;7.90;;
78224;SDS011;67498;53.650;10.090;2023-07-29T04:39:47;16.07;;;7.13;;
78224;SDS011;67498;53.650;10.090;2023-07-29T04:42:12;20.33;;;7.90;;
78224;SDS011;67498;53.650;10.090;2023-07-29T04:44:37;21.20;;;7.90;;
78224;SDS011;67498;53.650;10.090;2023-07-29T04:47:03;19.40;;;7.70;;
78224;SDS011;67498;53.650;10.090;2023-07-29T04:49:28;17.07;;;6.90;;
78224;SDS011;67498;53.650;10.090;2023-07-29T04:51:53;18.00;;;7.00;;
78224;SDS011;67498;53.650;10.090;2023-07-29T04:54:19;16.30;;;7.13;;
78224;SDS011;67498;53.650;10.090;2023-07-29T04:56:45;16.83;;;7.43;;
78224;SDS011;67498;53.650;10.090;2023-07-29T04:59:11;24.08;;;8.02;;
78224;SDS011;67498;53.650;10.090;2023-07-29T05:01:37;15.90;;;7.55;;
78224;SDS011;67498;53.650;10.090;2023-07-29T05:04:03;18.23;;;7.50;;
78224;SDS011;67498;53.650;10.090;2023-07-29T05:06:28;19.10;;;7.97;;
78224;SDS011;67498;53.650;10.090;2023-07-29T05:08:54;37.27;;;14.27;;
78224;SDS011;67498;53.650;10.090;2023-07-29T05:11:19;51.60;;;22.10;;
78224;SDS011;67498;53.650;10.090;2023-07-29T05:13:44;20.47;;;8.93;;
78224;SDS011;67498;53.650;10.090;2023-07-29T05:16:09;23.77;;;8.43;;
78224;SDS011;67498;53.650;10.090;2023-07-29T05:18:34;21.47;;;8.50;;
78224;SDS011;67498;53.650;10.090;2023-07-29T05:21:00;19.77;;;8.10;;
78224;SDS011;67498;53.650;10.090;2023-07-29T05:23:25;16.47;;;7.23;;
78224;SDS011;67498;53.650;10.090;2023-07-29T05:25:50;17.93;;;7.47;;
78224;SDS011;67498;53.650;10.090;2023-07-29T05:28:15;16.33;;;7.43;;
78224;SDS011;67498;53.650;10.090;2023-07-29T05:30:41;23.63;;;7.83;;
78224;SDS011;67498;53.650;10.090;2023-07-29T05:33:08;22.10;;;8.73;;
78224;SDS011;67498;53.650;10.090;2023-07-29T05:35:34;20.63;;;7.77;;
78224;SDS011;67498;53.650;10.090;2023-07-29T05:37:59;21.67;;;8.43;;
78224;SDS011;67498;53.650;10.090;2023-07-29T05:40:24;20.80;;;8.73;;
78224;SDS011;67498;53.650;10.090;2023-07-29T05:42:49;19.00;;;8.07;;
78224;SDS011;67498;53.650;10.090;2023-07-29T05:45:15;22.00;;;8.33;;
78224;SDS011;67498;53.650;10.090;2023-07-29T05:47:41;20.13;;;7.78;;
78224;SDS011;67498;53.650;10.090;2023-07-29T05:50:06;16.73;;;7.20;;
78224;SDS011;67498;53.650;10.090;2023-07-29T05:52:32;21.10;;;7.13;;
78224;SDS011;67498;53.650;10.090;2023-07-29T05:54:58;24.63;;;9.60;;
78224;SDS011;67498;53.650;10.090;2023-07-29T05:57:23;22.63;;;9.30;;
78224;SDS011;67498;53.650;10.090;2023-07-29T05:59:48;19.23;;;8.40;;
78224;SDS011;67498;53.650;10.090;2023-07-29T06:02:13;24.20;;;9.20;;
78224;SDS011;67498;53.650;10.090;2023-07-29T06:04:39;22.63;;;8.17;;
78224;SDS011;67498;53.650;10.090;2023-07-29T06:07:05;22.20;;;8.23;;
78224;SDS011;67498;53.650;10.090;2023-07-29T06:09:31;23.90;;;8.18;;
78224;SDS011;67498;53.650;10.090;2023-07-29T06:11:56;17.40;;;8.00;;
78224;SDS011;67498;53.650;10.090;2023-07-29T06:14:21;24.43;;;9.33;;
78224;SDS011;67498;53.650;10.090;2023-07-29T06:16:46;18.20;;;7.73;;
78224;SDS011;67498;53.650;10.090;2023-07-29T06:19:12;19.47;;;8.37;;
78224;SDS011;67498;53.650;10.090;2023-07-29T06:21:38;19.80;;;7.45;;
78224;SDS011;67498;53.650;10.090;2023-07-29T06:24:03;25.13;;;7.50;;
78224;SDS011;67498;53.650;10.090;2023-07-29T06:26:29;24.73;;;8.30;;
78224;SDS011;67498;53.650;10.090;2023-07-29T06:28:54;20.43;;;8.23;;
78224;SDS011;67498;53.650;10.090;2023-07-29T06:31:19;20.73;;;8.80;;
78224;SDS011;67498;53.650;10.090;2023-07-29T06:33:44;23.43;;;8.37;;
78224;SDS011;67498;53.650;10.090;2023-07-29T06:36:10;19.27;;;8.17;;
78224;SDS011;67498;53.650;10.090;2023-07-29T06:38:35;21.27;;;8.87;;
78224;SDS011;67498;53.650;10.090;2023-07-29T06:41:00;25.10;;;9.40;;
78224;SDS011;67498;53.650;10.090;2023-07-29T06:43:25;17.50;;;7.60;;
78224;SDS011;67498;53.650;10.090;2023-07-29T06:45:51;21.37;;;8.17;;
78224;SDS011;67498;53.650;10.090;2023-07-29T06:48:16;22.15;;;8.57;;
78224;SDS011;67498;53.650;10.090;2023-07-29T06:50:42;22.77;;;8.97;;
78224;SDS011;67498;53.650;10.090;2023-07-29T06:53:07;56.30;;;24.03;;
78224;SDS011;67498;53.650;10.090;2023-07-29T06:55:32;39.60;;;18.00;;
78224;SDS011;67498;53.650;10.090;2023-07-29T06:57:58;23.93;;;9.70;;
78224;SDS011;67498;53.650;10.090;2023-07-29T07:00:23;22.67;;;8.73;;
78224;SDS011;67498;53.650;10.090;2023-07-29T07:02:48;24.77;;;8.37;;
78224;SDS011;67498;53.650;10.090;2023-07-29T07:05:13;30.60;;;12.03;;
78224;SDS011;67498;53.650;10.090;2023-07-29T07:07:39;28.13;;;10.27;;
78224;SDS011;67498;53.650;10.090;2023-07-29T07:10:04;21.37;;;9.17;;
78224;SDS011;67498;53.650;10.090;2023-07-29T07:12:30;22.67;;;9.27;;
78224;SDS011;67498;53.650;10.090;2023-07-29T07:14:55;20.13;;;9.43;;
78224;SDS011;67498;53.650;10.090;2023-07-29T07:17:20;20.17;;;10.07;;
78224;SDS011;67498;53.650;10.090;2023-07-29T07:19:46;21.73;;;10.07;;
78224;SDS011;67498;53.650;10.090;2023-07-29T07:22:11;22.85;;;9.35;;
78224;SDS011;67498;53.650;10.090;2023-07-29T07:24:36;26.87;;;10.73;;
78224;SDS011;67498;53.650;10.090;2023-07-29T07:27:02;20.83;;;9.10;;
78224;SDS011;67498;53.650;10.090;2023-07-29T07:29:27;29.53;;;11.03;;
78224;SDS011;67498;53.650;10.090;2023-07-29T07:31:53;21.37;;;9.20;;
78224;SDS011;67498;53.650;10.090;2023-07-29T07:34:19;22.05;;;10.20;;
78224;SDS011;67498;53.650;10.090;2023-07-29T07:36:45;25.08;;;10.48;;
78224;SDS011;67498;53.650;10.090;2023-07-29T07:39:10;22.53;;;9.00;;
78224;SDS011;67498;53.650;10.090;2023-07-29T07:41:35;22.70;;;10.13;;
78224;SDS011;67498;53.650;10.090;2023-07-29T07:44:01;20.40;;;9.10;;
78224;SDS011;67498;53.650;10.090;2023-07-29T07:46:26;24.77;;;9.53;;
78224;SDS011;67498;53.650;10.090;2023-07-29T07:48:51;23.27;;;10.30;;
78224;SDS011;67498;53.650;10.090;2023-07-29T07:51:16;25.30;;;9.53;;
78224;SDS011;67498;53.650;10.090;2023-07-29T07:53:42;19.90;;;8.90;;
78224;SDS011;67498;53.650;10.090;2023-07-29T07:56:07;23.27;;;10.40;;
78224;SDS011;67498;53.650;10.090;2023-07-29T07:58:32;25.33;;;9.93;;
78224;SDS011;67498;53.650;10.090;2023-07-29T08:01:02;23.65;;;8.88;;
78224;SDS011;67498;53.650;10.090;2023-07-29T08:03:29;23.97;;;9.20;;
78224;SDS011;67498;53.650;10.090;2023-07-29T08:05:54;20.27;;;8.85;;
78224;SDS011;67498;53.650;10.090;2023-07-29T08:08:20;19.67;;;9.17;;
78224;SDS011;67498;53.650;10.090;2023-07-29T08:10:45;20.17;;;8.00;;
78224;SDS011;67498;53.650;10.090;2023-07-29T08:13:10;21.80;;;9.40;;
78224;SDS011;67498;53.650;10.090;2023-07-29T08:15:35;21.77;;;9.00;;
78224;SDS011;67498;53.650;10.090;2023-07-29T08:18:00;45.37;;;20.40;;
78224;SDS011;67498;53.650;10.090;2023-07-29T08:20:26;27.73;;;10.97;;
78224;SDS011;67498;53.650;10.090;2023-07-29T08:22:51;29.50;;;11.83;;
78224;SDS011;67498;53.650;10.090;2023-07-29T08:25:16;19.23;;;8.43;;
78224;SDS011;67498;53.650;10.090;2023-07-29T08:27:41;24.33;;;9.17;;
78224;SDS011;67498;53.650;10.090;2023-07-29T08:30:07;21.77;;;8.33;;
78224;SDS011;67498;53.650;10.090;2023-07-29T08:32:33;21.10;;;9.30;;
78224;SDS011;67498;53.650;10.090;2023-07-29T08:34:58;21.00;;;8.57;;
78224;SDS011;67498;53.650;10.090;2023-07-29T08:37:24;21.87;;;8.60;;
78224;SDS011;67498;53.650;10.090;2023-07-29T08:39:49;22.00;;;9.07;;
78224;SDS011;67498;53.650;10.090;2023-07-29T08:42:14;21.80;;;8.77;;
78224;SDS011;67498;53.650;10.090;2023-07-29T08:44:44;21.42;;;8.90;;
78224;SDS011;67498;53.650;10.090;2023-07-29T08:47:11;22.02;;;9.48;;
78224;SDS011;67498;53.650;10.090;2023-07-29T08:49:38;22.33;;;9.27;;
78224;SDS011;67498;53.650;10.090;2023-07-29T08:52:04;26.83;;;9.40;;
78224;SDS011;67498;53.650;10.090;2023-07-29T08:54:31;17.80;;;8.63;;
78224;SDS011;67498;53.650;10.090;2023-07-29T08:56:56;23.10;;;8.23;;
78224;SDS011;67498;53.650;10.090;2023-07-29T08:59:22;22.37;;;9.90;;
78224;SDS011;67498;53.650;10.090;2023-07-29T09:01:48;22.75;;;8.98;;
78224;SDS011;67498;53.650;10.090;2023-07-29T09:04:14;26.15;;;9.07;;
78224;SDS011;67498;53.650;10.090;2023-07-29T09:06:39;22.90;;;8.23;;
78224;SDS011;67498;53.650;10.090;2023-07-29T09:09:08;17.63;;;7.88;;
78224;SDS011;67498;53.650;10.090;2023-07-29T09:11:33;20.13;;;9.43;;
78224;SDS011;67498;53.650;10.090;2023-07-29T09:13:59;16.70;;;8.00;;
78224;SDS011;67498;53.650;10.090;2023-07-29T09:16:24;19.70;;;8.27;;
78224;SDS011;67498;53.650;10.090;2023-07-29T09:18:51;22.75;;;8.70;;
78224;SDS011;67498;53.650;10.090;2023-07-29T09:21:17;20.87;;;8.63;;
78224;SDS011;67498;53.650;10.090;2023-07-29T09:23:47;18.17;;;7.20;;
78224;SDS011;67498;53.650;10.090;2023-07-29T09:26:12;20.10;;;8.77;;
78224;SDS011;67498;53.650;10.090;2023-07-29T09:28:38;20.23;;;8.13;;
78224;SDS011;67498;53.650;10.090;2023-07-29T09:31:05;21.42;;;9.23;;
78224;SDS011;67498;53.650;10.090;2023-07-29T09:33:34;17.07;;;7.83;;
78224;SDS011;67498;53.650;10.090;2023-07-29T09:36:01;16.77;;;8.48;;
78224;SDS011;67498;53.650;10.090;2023-07-29T09:38:28;21.48;;;8.13;;
78224;SDS011;67498;53.650;10.090;2023-07-29T09:40:56;18.70;;;8.33;;
78224;SDS011;67498;53.650;10.090;2023-07-29T09:43:28;19.00;;;8.02;;
78224;SDS011;67498;53.650;10.090;2023-07-29T09:45:54;18.40;;;7.93;;
78224;SDS011;67498;53.650;10.090;2023-07-29T09:48:22;21.57;;;8.20;;
78224;SDS011;67498;53.650;10.090;2023-07-29T09:50:49;18.77;;;7.47;;
78224;SDS011;67498;53.650;10.090;2023-07-29T09:53:15;22.70;;;7.63;;
78224;SDS011;67498;53.650;10.090;2023-07-29T09:55:40;17.97;;;7.57;;
78224;SDS011;67498;53.650;10.090;2023-07-29T09:58:11;18.80;;;8.27;;
78224;SDS011;67498;53.650;10.090;2023-07-29T10:00:36;21.13;;;6.93;;
78224;SDS011;67498;53.650;10.090;2023-07-29T10:03:04;16.75;;;7.50;;
78224;SDS011;67498;53.650;10.090;2023-07-29T10:05:29;21.33;;;8.17;;
78224;SDS011;67498;53.650;10.090;2023-07-29T10:07:55;20.67;;;6.93;;
78224;SDS011;67498;53.650;10.090;2023-07-29T10:10:21;20.65;;;7.50;;
78224;SDS011;67498;53.650;10.090;2023-07-29T10:12:46;19.27;;;7.60;;
78224;SDS011;67498;53.650;10.090;2023-07-29T10:15:12;21.73;;;7.93;;
78224;SDS011;67498;53.650;10.090;2023-07-29T10:17:38;17.33;;;6.10;;
78224;SDS011;67498;53.650;10.090;2023-07-29T10:20:07;13.65;;;5.45;;
78224;SDS011;67498;53.650;10.090;2023-07-29T10:22:34;10.88;;;4.63;;
78224;SDS011;67498;53.650;10.090;2023-07-29T10:25:07;9.53;;;4.00;;
78224;SDS011;67498;53.650;10.090;2023-07-29T10:27:43;11.38;;;4.15;;
78224;SDS011;67498;53.650;10.090;2023-07-29T10:30:12;8.98;;;3.85;;
78224;SDS011;67498;53.650;10.090;2023-07-29T10:32:38;9.80;;;3.30;;
78224;SDS011;67498;53.650;10.090;2023-07-29T10:35:07;9.87;;;4.10;;
78224;SDS011;67498;53.650;10.090;2023-07-29T10:37:32;10.05;;;4.32;;
78224;SDS011;67498;53.650;10.090;2023-07-29T10:39:58;7.87;;;3.60;;
78224;SDS011;67498;53.650;10.090;2023-07-29T10:42:23;10.07;;;3.33;;
78224;SDS011;67498;53.650;10.090;2023-07-29T10:44:49;7.10;;;2.60;;
78224;SDS011;67498;53.650;10.090;2023-07-29T10:47:20;7.40;;;3.47;;
78224;SDS011;67498;53.650;10.090;2023-07-29T10:49:47;7.38;;;2.92;;
78224;SDS011;67498;53.650;10.090;2023-07-29T10:52:15;6.20;;;2.65;;
78224;SDS011;67498;53.650;10.090;2023-07-29T10:54:42;8.93;;;4.13;;
78224;SDS011;67498;53.650;10.090;2023-07-29T10:57:12;10.60;;;4.77;;
78224;SDS011;67498;53.650;10.090;2023-07-29T10:59:41;8.40;;;2.75;;
78224;SDS011;67498;53.650;10.090;2023-07-29T11:02:20;6.25;;;2.60;;
78224;SDS011;67498;53.650;10.090;2023-07-29T11:04:54;8.53;;;2.90;;
78224;SDS011;67498;53.650;10.090;2023-07-29T11:07:20;6.75;;;2.92;;
78224;SDS011;67498;53.650;10.090;2023-07-29T11:09:57;6.85;;;3.00;;
78224;SDS011;67498;53.650;10.090;2023-07-29T11:12:39;6.47;;;2.73;;
78224;SDS011;67498;53.650;10.090;2023-07-29T11:15:11;7.38;;;3.17;;
78224;SDS011;67498;53.650;10.090;2023-07-29T11:20:15;5.45;;;2.28;;
78224;SDS011;67498;53.650;10.090;2023-07-29T11:22:41;7.50;;;2.90;;
78224;SDS011;67498;53.650;10.090;2023-07-29T11:25:08;6.10;;;2.53;;
78224;SDS011;67498;53.650;10.090;2023-07-29T11:27:35;13.30;;;6.00;;
78224;SDS011;67498;53.650;10.090;2023-07-29T11:30:02;8.55;;;3.90;;
78224;SDS011;67498;53.650;10.090;2023-07-29T11:32:33;6.43;;;2.40;;
78224;SDS011;67498;53.650;10.090;2023-07-29T11:35:03;7.25;;;2.95;;
78224;SDS011;67498;53.650;10.090;2023-07-29T11:37:33;6.75;;;2.20;;
78224;SDS011;67498;53.650;10.090;2023-07-29T11:39:59;11.60;;;1.88;;
78224;SDS011;67498;53.650;10.090;2023-07-29T11:42:24;5.37;;;1.83;;
78224;SDS011;67498;53.650;10.090;2023-07-29T11:44:51;4.30;;;1.60;;
78224;SDS011;67498;53.650;10.090;2023-07-29T11:47:16;4.43;;;1.60;;
78224;SDS011;67498;53.650;10.090;2023-07-29T11:49:41;4.90;;;1.63;;
78224;SDS011;67498;53.650;10.090;2023-07-29T11:52:07;5.03;;;1.70;;
78224;SDS011;67498;53.650;10.090;2023-07-29T11:54:34;8.52;;;1.70;;
78224;SDS011;67498;53.650;10.090;2023-07-29T11:57:00;4.93;;;1.77;;
78224;SDS011;67498;53.650;10.090;2023-07-29T11:59:27;5.27;;;1.80;;
78224;SDS011;67498;53.650;10.090;2023-07-29T12:01:53;4.63;;;1.50;;
78224;SDS011;67498;53.650;10.090;2023-07-29T12:04:18;4.43;;;1.63;;
78224;SDS011;67498;53.650;10.090;2023-07-29T12:06:44;4.60;;;1.60;;
78224;SDS011;67498;53.650;10.090;2023-07-29T12:09:09;4.60;;;1.60;;
78224;SDS011;67498;53.650;10.090;2023-07-29T12:11:35;4.43;;;1.50;;
78224;SDS011;67498;53.650;10.090;2023-07-29T12:14:00;5.40;;;1.33;;
78224;SDS011;67498;53.650;10.090;2023-07-29T12:16:25;4.47;;;1.23;;
78224;SDS011;67498;53.650;10.090;2023-07-29T12:18:51;5.03;;;1.60;;
78224;SDS011;67498;53.650;10.090;2023-07-29T12:21:17;4.47;;;1.38;;
78224;SDS011;67498;53.650;10.090;2023-07-29T12:23:44;4.85;;;1.20;;
78224;SDS011;67498;53.650;10.090;2023-07-29T12:26:09;3.90;;;1.20;;
78224;SDS011;67498;53.650;10.090;2023-07-29T12:28:34;3.63;;;1.10;;
78224;SDS011;67498;53.650;10.090;2023-07-29T12:31:00;5.57;;;1.50;;
78224;SDS011;67498;53.650;10.090;2023-07-29T12:36:00;9.13;;;3.08;;
78224;SDS011;67498;53.650;10.090;2023-07-29T12:38:26;6.72;;;1.90;;
78224;SDS011;67498;53.650;10.090;2023-07-29T12:40:52;5.00;;;1.40;;
78224;SDS011;67498;53.650;10.090;2023-07-29T12:43:18;4.47;;;1.40;;
78224;SDS011;67498;53.650;10.090;2023-07-29T12:45:43;7.10;;;1.33;;
78224;SDS011;67498;53.650;10.090;2023-07-29T12:48:09;3.93;;;1.10;;
78224;SDS011;67498;53.650;10.090;2023-07-29T12:50:35;3.70;;;1.10;;
78224;SDS011;67498;53.650;10.090;2023-07-29T12:53:00;5.20;;;1.50;;
78224;SDS011;67498;53.650;10.090;2023-07-29T12:55:26;6.23;;;1.57;;
78224;SDS011;67498;53.650;10.090;2023-07-29T12:57:51;4.77;;;1.10;;
78224;SDS011;67498;53.650;10.090;2023-07-29T13:00:17;3.50;;;0.90;;
78224;SDS011;67498;53.650;10.090;2023-07-29T13:02:42;3.67;;;1.07;;
78224;SDS011;67498;53.650;10.090;2023-07-29T13:05:09;3.60;;;1.10;;
78224;SDS011;67498;53.650;10.090;2023-07-29T13:07:36;3.67;;;1.07;;
78224;SDS011;67498;53.650;10.090;2023-07-29T13:10:02;3.47;;;1.10;;
78224;SDS011;67498;53.650;10.090;2023-07-29T13:12:28;3.95;;;1.17;;
78224;SDS011;67498;53.650;10.090;2023-07-29T13:14:53;3.50;;;1.10;;
78224;SDS011;67498;53.650;10.090;2023-07-29T13:17:19;3.40;;;1.13;;
78224;SDS011;67498;53.650;10.090;2023-07-29T13:19:44;4.27;;;1.10;;
78224;SDS011;67498;53.650;10.090;2023-07-29T13:22:09;3.63;;;1.07;;
78224;SDS011;67498;53.650;10.090;2023-07-29T13:24:34;3.93;;;1.10;;
78224;SDS011;67498;53.650;10.090;2023-07-29T13:27:00;4.20;;;1.30;;
78224;SDS011;67498;53.650;10.090;2023-07-29T13:29:25;2.77;;;0.80;;
78224;SDS011;67498;53.650;10.090;2023-07-29T13:31:50;3.83;;;1.00;;
78224;SDS011;67498;53.650;10.090;2023-07-29T13:34:16;3.57;;;0.93;;
78224;SDS011;67498;53.650;10.090;2023-07-29T13:36:41;2.90;;;0.80;;
78224;SDS011;67498;53.650;10.090;2023-07-29T13:39:06;3.50;;;1.10;;
78224;SDS011;67498;53.650;10.090;2023-07-29T13:41:31;3.23;;;0.90;;
78224;SDS011;67498;53.650;10.090;2023-07-29T13:43:57;3.60;;;1.10;;
78224;SDS011;67498;53.650;10.090;2023-07-29T13:46:22;4.37;;;1.23;;
78224;SDS011;67498;53.650;10.090;2023-07-29T13:48:47;3.80;;;1.30;;
78224;SDS011;67498;53.650;10.090;2023-07-29T13:51:12;3.50;;;1.10;;
78224;SDS011;67498;53.650;10.090;2023-07-29T13:53:38;3.50;;;1.00;;
78224;SDS011;67498;53.650;10.090;2023-07-29T13:56:03;3.20;;;1.10;;
78224;SDS011;67498;53.650;10.090;2023-07-29T13:58:29;3.30;;;1.00;;
78224;SDS011;67498;53.650;10.090;2023-07-29T14:00:55;3.90;;;1.30;;
78224;SDS011;67498;53.650;10.090;2023-07-29T14:03:20;4.27;;;1.30;;
78224;SDS011;67498;53.650;10.090;2023-07-29T14:05:45;5.07;;;1.20;;
78224;SDS011;67498;53.650;10.090;2023-07-29T14:08:11;4.10;;;1.20;;
78224;SDS011;67498;53.650;10.090;2023-07-29T14:10:36;4.13;;;1.00;;
78224;SDS011;67498;53.650;10.090;2023-07-29T14:13:02;4.05;;;1.00;;
78224;SDS011;67498;53.650;10.090;2023-07-29T14:15:27;4.00;;;1.30;;
78224;SDS011;67498;53.650;10.090;2023-07-29T14:17:53;3.95;;;1.15;;
78224;SDS011;67498;53.650;10.090;2023-07-29T14:20:19;4.13;;;1.07;;
78224;SDS011;67498;53.650;10.090;2023-07-29T14:22:44;3.80;;;1.40;;
78224;SDS011;67498;53.650;10.090;2023-07-29T14:25:09;4.00;;;1.20;;
78224;SDS011;67498;53.650;10.090;2023-07-29T14:27:35;4.07;;;1.10;;
78224;SDS011;67498;53.650;10.090;2023-07-29T14:30:01;5.17;;;1.00;;